Time;durP1;ratioP1;P1;durP2;ratioP2;P2;SDS_P1;SDS_P2;PMS_P1;PMS_P2;Temp;Humidity;BMP_temperature;BMP_pressure;BME280_temperature;BME280_humidity;BME280_pressure;Samples;Min_cycle;Max_cycle;Signal;HPM_P1;HPM_P2
2023/06/11 00:02:03;;;;;;;1.42;1.00;;;;;;;26.80;37.36;100923.31;5026905;28;20049;-72
2023/06/11 00:04:34;;;;;;;2.40;1.10;;;;;;;26.80;36.78;100925.97;5022368;28;20049;-71
2023/06/11 00:07:05;;;;;;;1.35;1.25;;;;;;;26.77;36.67;100920.75;5018407;28;20049;-72
2023/06/11 00:09:34;;;;;;;3.35;1.00;;;;;;;26.79;38.10;100926.88;5021899;28;20126;-73
2023/06/11 00:12:03;;;;;;;1.40;1.00;;;;;;;26.70;36.59;100920.09;5019539;28;20092;-75
2023/06/11 00:14:31;;;;;;;2.58;1.27;;;;;;;26.66;37.87;100917.59;5016693;28;20054;-75
2023/06/11 00:17:00;;;;;;;1.85;1.38;;;;;;;26.60;38.39;100916.03;5024225;28;20045;-73
2023/06/11 00:19:29;;;;;;;1.80;1.40;;;;;;;26.56;37.32;100918.84;5017634;28;20208;-75
2023/06/11 00:21:58;;;;;;;2.40;1.40;;;;;;;26.31;37.07;100916.97;5018200;28;20046;-74
2023/06/11 00:24:28;;;;;;;1.33;1.10;;;;;;;26.21;37.33;100910.25;5021904;28;20708;-72
2023/06/11 00:26:59;;;;;;;1.88;1.30;;;;;;;26.19;37.82;100912.97;5024806;28;20091;-74
2023/06/11 00:29:28;;;;;;;1.52;1.20;;;;;;;26.20;37.66;100912.03;5018007;28;20052;-72
2023/06/11 00:31:57;;;;;;;1.75;1.20;;;;;;;26.18;37.95;100911.19;5023127;28;20045;-72
2023/06/11 00:34:26;;;;;;;3.08;1.38;;;;;;;26.13;39.58;100911.34;5027994;28;20055;-71
2023/06/11 00:36:54;;;;;;;1.38;1.08;;;;;;;26.11;38.37;100905.25;5025729;28;20049;-71
2023/06/11 00:39:23;;;;;;;1.55;1.10;;;;;;;26.10;38.63;100903.50;5021753;28;20056;-71
2023/06/11 00:41:53;;;;;;;2.63;0.95;;;;;;;26.06;38.70;100893.91;5022786;28;20597;-73
2023/06/11 00:44:23;;;;;;;2.53;1.40;;;;;;;26.00;39.38;100894.13;5022221;28;20045;-71
2023/06/11 00:46:56;;;;;;;1.45;1.00;;;;;;;25.97;38.29;100882.75;5024009;28;20045;-72
2023/06/11 00:49:25;;;;;;;2.05;1.20;;;;;;;25.93;38.71;100882.00;5026394;28;20180;-71
2023/06/11 00:51:54;;;;;;;3.22;1.20;;;;;;;25.79;38.87;100874.44;5026552;28;20419;-73
2023/06/11 00:54:23;;;;;;;2.28;1.10;;;;;;;25.70;39.11;100875.59;5022039;28;20049;-74
2023/06/11 00:56:54;;;;;;;2.40;1.08;;;;;;;25.70;39.51;100874.72;5019806;28;20060;-73
2023/06/11 00:59:25;;;;;;;2.17;1.40;;;;;;;25.64;38.38;100870.50;5021444;28;20125;-74
2023/06/11 01:02:00;;;;;;;1.60;1.35;;;;;;;25.59;38.93;100883.03;5020729;28;20127;-72
2023/06/11 01:04:32;;;;;;;2.35;1.10;;;;;;;25.57;39.42;100884.84;5023136;28;20478;-71
2023/06/11 01:07:01;;;;;;;;;;;;;;;25.56;39.52;100880.44;5025696;28;20099;-71
2023/06/11 01:09:32;;;;;;;2.65;1.13;;;;;;;25.49;39.70;100876.25;5021043;28;19925;-73
2023/06/11 01:12:03;;;;;;;3.03;1.10;;;;;;;25.44;39.44;100872.88;5023274;28;20044;-72
2023/06/11 01:14:33;;;;;;;2.70;1.25;;;;;;;25.31;39.64;100875.03;5024806;28;20136;-73
2023/06/11 01:17:06;;;;;;;2.75;1.40;;;;;;;25.16;40.04;100870.16;5021201;28;20586;-73
2023/06/11 01:19:50;;;;;;;4.22;1.92;;;;;;;25.10;40.31;100873.84;5020881;28;20076;-72
2023/06/11 01:22:29;;;;;;;2.08;1.20;;;;;;;25.05;40.64;100870.47;5024299;28;20052;-72
2023/06/11 01:25:17;;;;;;;3.70;1.40;;;;;;;24.96;41.07;100868.94;5018123;28;20046;-70
2023/06/11 01:28:06;;;;;;;2.17;1.42;;;;;;;24.72;41.25;100862.56;5020357;28;20049;-72
2023/06/11 01:30:37;;;;;;;2.63;1.30;;;;;;;24.67;41.36;100862.69;5023228;28;20577;-72
2023/06/11 01:33:08;;;;;;;2.83;1.40;;;;;;;24.59;41.82;100867.31;5021702;28;20076;-70
2023/06/11 01:35:37;;;;;;;4.20;1.60;;;;;;;24.56;42.06;100869.19;5022176;28;20100;-69
2023/06/11 01:38:08;;;;;;;4.00;1.50;;;;;;;24.55;41.87;100870.09;5020995;28;20132;-69
2023/06/11 01:40:39;;;;;;;3.37;1.20;;;;;;;24.54;41.81;100873.66;5021664;28;20563;-69
2023/06/11 01:43:09;;;;;;;4.97;1.73;;;;;;;24.53;41.47;100878.06;5024393;28;20056;-69
2023/06/11 01:45:38;;;;;;;3.17;1.55;;;;;;;24.48;42.45;100879.09;5021799;28;20057;-71
2023/06/11 01:48:10;;;;;;;3.22;1.08;;;;;;;24.38;41.94;100874.00;5023735;28;20049;-71
2023/06/11 01:50:38;;;;;;;;;;;;;;;24.22;41.67;100856.81;5028037;28;20041;-70
2023/06/11 01:53:16;;;;;;;6.45;1.60;;;;;;;24.12;42.61;100869.41;5023617;28;19929;-70
2023/06/11 01:55:45;;;;;;;3.63;1.42;;;;;;;24.06;42.82;100866.03;5025281;28;20056;-70
2023/06/11 01:58:16;;;;;;;4.55;1.35;;;;;;;24.01;42.44;100866.16;5025875;28;20053;-70
2023/06/11 02:00:47;;;;;;;5.72;1.38;;;;;;;23.97;43.65;100862.69;5023003;28;20045;-70
2023/06/11 02:03:16;;;;;;;5.45;1.50;;;;;;;23.99;43.07;100871.47;5023067;28;20141;-70
2023/06/11 02:05:45;;;;;;;2.03;1.30;;;;;;;23.94;43.16;100868.06;5025605;28;20075;-71
2023/06/11 02:08:14;;;;;;;3.63;1.40;;;;;;;23.87;43.59;100866.47;5026131;28;20526;-73
2023/06/11 02:10:44;;;;;;;2.70;1.67;;;;;;;23.74;44.04;100863.25;5023621;28;20077;-71
2023/06/11 02:13:15;;;;;;;2.45;1.30;;;;;;;23.68;44.12;100862.50;5021054;28;20609;-70
2023/06/11 02:15:43;;;;;;;2.08;1.40;;;;;;;23.65;43.88;100860.78;5023813;28;20458;-72
2023/06/11 02:18:12;;;;;;;2.92;1.35;;;;;;;23.60;44.72;100863.53;5023372;28;20511;-70
2023/06/11 02:20:41;;;;;;;2.38;1.25;;;;;;;23.54;44.49;100868.94;5021162;28;20076;-70
2023/06/11 02:23:09;;;;;;;3.90;1.60;;;;;;;23.49;44.66;100872.59;5019660;28;20081;-74
2023/06/11 02:25:38;;;;;;;3.38;1.63;;;;;;;23.36;44.46;100874.63;5027119;28;20654;-69
2023/06/11 02:28:07;;;;;;;3.88;1.48;;;;;;;23.26;45.38;100868.69;5023614;28;20153;-70
2023/06/11 02:30:38;;;;;;;1.95;1.23;;;;;;;23.23;45.81;100868.78;5021930;28;20050;-70
2023/06/11 02:33:07;;;;;;;3.03;1.42;;;;;;;23.17;46.33;100875.03;5023840;28;20511;-69
2023/06/11 02:35:35;;;;;;;2.72;1.70;;;;;;;23.02;45.87;100874.47;5023567;28;20522;-69
2023/06/11 02:38:04;;;;;;;2.55;1.60;;;;;;;22.93;46.40;100865.81;5022964;28;20041;-70
2023/06/11 02:40:32;;;;;;;3.60;2.17;;;;;;;22.88;46.17;100864.16;5022393;28;20491;-70
2023/06/11 02:43:01;;;;;;;6.03;1.40;;;;;;;22.83;46.43;100873.94;5016004;28;20590;-71
2023/06/11 02:45:29;;;;;;;2.03;1.30;;;;;;;22.80;47.12;100875.72;5019060;28;20056;-69
2023/06/11 02:48:06;;;;;;;2.95;1.50;;;;;;;22.77;47.36;100881.06;5021115;28;20135;-71
2023/06/11 02:50:34;;;;;;;4.65;2.70;;;;;;;22.68;48.21;100881.25;5024767;28;20125;-69
2023/06/11 02:53:03;;;;;;;3.95;1.88;;;;;;;22.63;48.28;100879.56;5022539;28;20452;-71
2023/06/11 02:55:32;;;;;;;2.83;1.60;;;;;;;22.53;48.63;100874.47;5022941;28;20731;-69
2023/06/11 02:58:00;;;;;;;2.08;1.48;;;;;;;22.48;49.38;100883.38;5019837;28;20062;-70
2023/06/11 03:00:29;;;;;;;4.13;1.80;;;;;;;22.39;49.02;100884.41;5022926;28;20104;-69
2023/06/11 03:02:59;;;;;;;5.55;1.45;;;;;;;22.30;49.67;100881.91;5025011;28;20548;-69
2023/06/11 03:05:28;;;;;;;2.58;1.60;;;;;;;22.20;49.28;100886.44;5023235;28;20104;-68
2023/06/11 03:07:56;;;;;;;3.53;1.45;;;;;;;22.13;49.39;100887.44;5017373;28;20127;-69
2023/06/11 03:10:27;;;;;;;3.53;1.85;;;;;;;22.06;49.50;100883.16;5019589;28;20571;-69
2023/06/11 03:12:56;;;;;;;3.30;2.08;;;;;;;21.99;49.69;100878.88;5020775;28;20410;-71
2023/06/11 03:15:25;;;;;;;2.33;1.40;;;;;;;21.92;49.93;100888.63;5026394;28;20053;-70
2023/06/11 03:17:53;;;;;;;2.55;1.45;;;;;;;21.83;50.96;100879.13;5022988;28;20129;-69
2023/06/11 03:20:23;;;;;;;1.90;1.10;;;;;;;21.73;51.54;100885.41;5021245;28;20056;-68
2023/06/11 03:22:52;;;;;;;2.90;1.30;;;;;;;21.66;52.13;100891.66;5003270;28;20053;-68
2023/06/11 03:25:21;;;;;;;3.30;1.15;;;;;;;21.52;52.37;100892.72;5004256;28;20054;-70
2023/06/11 03:27:49;;;;;;;1.85;1.17;;;;;;;21.40;53.32;100890.25;5007248;28;20060;-69
2023/06/11 03:30:18;;;;;;;2.00;1.52;;;;;;;21.30;53.13;100894.75;5007382;28;20050;-69
2023/06/11 03:32:50;;;;;;;1.50;1.02;;;;;;;21.25;53.36;100888.66;4998975;28;20046;-69
2023/06/11 03:35:18;;;;;;;1.73;1.13;;;;;;;21.21;53.72;100888.69;5002456;28;20053;-69
2023/06/11 03:37:48;;;;;;;3.78;1.40;;;;;;;21.16;54.11;100891.38;5002339;28;20077;-70
2023/06/11 03:40:17;;;;;;;1.20;1.10;;;;;;;21.11;53.90;100898.47;5007102;28;20058;-70
2023/06/11 03:42:48;;;;;;;2.70;1.38;;;;;;;21.07;54.61;100907.28;5003519;28;20046;-70
2023/06/11 03:45:17;;;;;;;2.08;1.10;;;;;;;21.02;54.67;100898.59;5001476;28;20049;-70
2023/06/11 03:47:45;;;;;;;3.30;1.23;;;;;;;20.98;55.69;100899.50;4998338;28;20116;-69
2023/06/11 03:50:14;;;;;;;2.38;1.20;;;;;;;20.90;55.05;100910.13;4994599;28;20046;-70
2023/06/11 03:52:43;;;;;;;2.60;1.20;;;;;;;20.84;55.59;100912.81;5004050;28;20038;-69
2023/06/11 03:55:13;;;;;;;4.28;1.38;;;;;;;20.80;55.89;100913.72;5007036;28;20045;-71
2023/06/11 03:57:42;;;;;;;2.15;1.40;;;;;;;20.76;56.14;100914.66;5002996;28;20046;-70
2023/06/11 04:00:12;;;;;;;1.52;1.13;;;;;;;20.70;56.76;100919.06;5003914;28;20046;-70
2023/06/11 04:02:40;;;;;;;1.98;1.10;;;;;;;20.67;56.62;100924.34;5000918;28;20050;-70
2023/06/11 04:05:09;;;;;;;2.70;1.55;;;;;;;20.64;57.23;100923.53;4991713;28;20042;-70
2023/06/11 04:07:39;;;;;;;3.38;1.58;;;;;;;20.61;57.44;100921.78;4987328;28;20113;-70
2023/06/11 04:10:09;;;;;;;2.70;1.30;;;;;;;20.55;57.30;100932.34;5002139;28;20073;-71
2023/06/11 04:12:39;;;;;;;2.08;1.50;;;;;;;20.54;57.16;100938.47;4998041;28;20507;-69
2023/06/11 04:15:09;;;;;;;3.05;1.52;;;;;;;20.52;57.59;100934.97;5007378;28;20054;-70
2023/06/11 04:17:39;;;;;;;2.25;1.23;;;;;;;20.48;58.31;100938.53;5004353;28;20061;-70
2023/06/11 04:20:09;;;;;;;1.75;1.00;;;;;;;20.42;57.17;100938.56;5006343;28;20137;-70
2023/06/11 04:22:37;;;;;;;2.25;1.23;;;;;;;20.38;57.91;100944.75;5029104;28;20115;-70
2023/06/11 04:25:07;;;;;;;2.70;1.38;;;;;;;20.27;58.76;100950.06;5021493;28;20577;-70
2023/06/11 04:27:38;;;;;;;2.53;1.40;;;;;;;20.14;58.81;100946.66;5023265;28;20493;-70
2023/06/11 04:30:09;;;;;;;1.75;1.00;;;;;;;20.02;58.92;100946.72;5024610;28;20053;-71
2023/06/11 04:32:40;;;;;;;2.63;1.02;;;;;;;19.97;59.47;100952.00;5026259;28;20064;-70
2023/06/11 04:35:09;;;;;;;1.83;1.20;;;;;;;19.92;59.81;100963.44;5023575;28;20049;-71
2023/06/11 04:37:40;;;;;;;1.92;1.30;;;;;;;19.82;59.49;100971.38;5023279;28;20145;-71
2023/06/11 04:40:13;;;;;;;1.65;1.35;;;;;;;19.72;59.91;100980.16;5025477;28;20108;-71
2023/06/11 04:42:43;;;;;;;1.88;1.10;;;;;;;19.64;59.77;100979.31;5021492;28;20050;-70
2023/06/11 04:45:12;;;;;;;1.15;0.95;;;;;;;19.56;59.90;100981.06;5022102;28;20145;-71
2023/06/11 04:47:41;;;;;;;2.40;1.40;;;;;;;19.52;61.20;100989.88;5021787;28;20041;-72
2023/06/11 04:50:10;;;;;;;1.33;1.00;;;;;;;19.48;61.16;100993.38;5025204;28;20045;-71
2023/06/11 04:52:39;;;;;;;2.55;1.27;;;;;;;19.41;61.59;100993.38;5026014;28;20056;-74
2023/06/11 04:55:09;;;;;;;1.77;1.05;;;;;;;19.33;61.58;100995.13;5021106;28;20557;-71
2023/06/11 04:57:38;;;;;;;2.33;1.02;;;;;;;19.29;61.41;100997.78;5007775;28;20426;-71
2023/06/11 05:00:13;;;;;;;1.90;1.20;;;;;;;19.23;62.35;100996.06;5016749;28;20633;-73
2023/06/11 05:02:44;;;;;;;2.75;1.10;;;;;;;19.15;62.24;101000.44;5015311;28;20056;-71
2023/06/11 05:05:13;;;;;;;1.67;1.00;;;;;;;19.11;62.79;101004.81;5012747;28;20170;-70
2023/06/11 05:07:42;;;;;;;2.60;1.30;;;;;;;19.08;63.36;100998.69;5017481;28;20149;-72
2023/06/11 05:10:10;;;;;;;2.08;1.55;;;;;;;19.02;63.45;101004.84;5022063;28;20045;-72
2023/06/11 05:12:39;;;;;;;2.17;1.20;;;;;;;18.99;63.87;101000.47;5024171;28;20112;-71
2023/06/11 05:15:10;;;;;;;2.50;1.27;;;;;;;18.96;63.83;101005.69;5018785;28;20266;-72
2023/06/11 05:17:39;;;;;;;2.60;1.00;;;;;;;18.92;64.37;101008.34;5021587;28;20045;-71
2023/06/11 05:20:11;;;;;;;2.28;1.10;;;;;;;18.89;64.54;101006.59;5025500;28;20041;-72
2023/06/11 05:22:40;;;;;;;2.75;1.08;;;;;;;18.85;64.71;101010.06;5022731;28;20085;-72
2023/06/11 05:25:14;;;;;;;3.85;1.13;;;;;;;18.80;64.64;101010.09;5021888;28;20048;-72
2023/06/11 05:27:43;;;;;;;3.25;1.95;;;;;;;18.75;65.38;101005.69;5022645;28;20611;-71
2023/06/11 05:30:15;;;;;;;4.68;1.90;;;;;;;18.73;65.44;101016.16;5026752;28;20042;-72
2023/06/11 05:32:43;;;;;;;2.23;1.50;;;;;;;18.69;64.91;101017.06;5021866;28;20095;-71
2023/06/11 05:35:12;;;;;;;5.15;2.38;;;;;;;18.65;65.78;101025.78;5018427;28;20280;-71
2023/06/11 05:37:40;;;;;;;4.53;1.63;;;;;;;18.58;65.72;101018.81;5015528;28;20060;-70
2023/06/11 05:40:11;;;;;;;3.88;1.40;;;;;;;18.57;65.63;101027.53;5016149;28;20096;-70
2023/06/11 05:42:39;;;;;;;2.83;1.35;;;;;;;18.55;65.82;101024.03;5023689;28;20064;-71
2023/06/11 05:45:09;;;;;;;2.90;1.33;;;;;;;18.52;65.90;101024.03;5014987;28;20336;-70
2023/06/11 05:47:39;;;;;;;2.15;1.55;;;;;;;18.49;66.14;101024.91;5014347;28;20541;-71
2023/06/11 05:50:08;;;;;;;2.83;1.50;;;;;;;18.45;66.22;101023.16;5023278;28;20060;-72
2023/06/11 05:52:39;;;;;;;2.58;1.23;;;;;;;18.41;66.70;101026.63;5017738;28;20045;-72
2023/06/11 05:55:08;;;;;;;2.08;1.40;;;;;;;18.36;66.86;101023.13;5022003;28;20054;-71
2023/06/11 05:57:37;;;;;;;1.60;1.10;;;;;;;18.33;66.42;101023.13;5016316;28;20085;-71
2023/06/11 06:00:09;;;;;;;2.55;1.30;;;;;;;18.27;67.31;101010.88;5021242;28;20065;-72
2023/06/11 06:02:40;;;;;;;2.58;1.00;;;;;;;18.23;67.36;101010.88;5015990;28;20092;-71
2023/06/11 06:05:09;;;;;;;1.63;1.33;;;;;;;18.19;67.62;101010.00;5025503;28;20107;-71
2023/06/11 06:07:38;;;;;;;6.82;1.88;;;;;;;18.14;67.74;101015.25;5022026;28;20060;-70
2023/06/11 06:10:07;;;;;;;3.67;1.45;;;;;;;18.09;67.38;101011.72;5015559;28;20045;-72
2023/06/11 06:12:36;;;;;;;3.05;1.75;;;;;;;18.07;67.87;101018.69;5014821;28;20372;-70
2023/06/11 06:15:05;;;;;;;3.08;1.15;;;;;;;18.03;68.60;101013.44;5021562;28;20605;-70
2023/06/11 06:17:36;;;;;;;3.65;1.15;;;;;;;17.97;68.44;101009.06;5020755;28;20053;-71
2023/06/11 06:20:09;;;;;;;3.90;1.40;;;;;;;17.93;68.45;101008.19;5020195;28;20107;-70
2023/06/11 06:22:39;;;;;;;3.42;1.30;;;;;;;17.87;68.73;101004.69;5017855;28;20061;-71
2023/06/11 06:25:08;;;;;;;1.98;1.35;;;;;;;17.84;68.46;100999.41;5018334;28;20046;-73
2023/06/11 06:27:37;;;;;;;4.10;1.30;;;;;;;17.81;68.22;101000.28;5023112;28;20053;-70
2023/06/11 06:30:07;;;;;;;4.05;1.40;;;;;;;17.77;68.24;100994.16;5020135;28;20037;-72
2023/06/11 06:32:36;;;;;;;3.30;1.05;;;;;;;17.73;69.39;100995.00;5024741;28;20634;-72
2023/06/11 06:35:08;;;;;;;1.45;1.10;;;;;;;17.70;69.46;100997.59;5028369;28;20077;-74
2023/06/11 06:37:39;;;;;;;2.07;0.83;;;;;;;17.68;69.15;100991.47;5016691;28;20054;-72
2023/06/11 06:40:10;;;;;;;2.00;1.08;;;;;;;17.66;69.82;100998.47;5023723;28;20140;-72
2023/06/11 06:42:39;;;;;;;1.70;0.93;;;;;;;17.59;69.48;100999.28;5015598;28;20050;-71
2023/06/11 06:45:09;;;;;;;1.55;1.00;;;;;;;17.56;69.86;100994.03;5025123;28;20041;-72
2023/06/11 06:47:39;;;;;;;2.03;1.20;;;;;;;17.52;70.41;100989.66;5015293;28;20534;-72
2023/06/11 06:50:10;;;;;;;1.55;0.95;;;;;;;17.48;70.34;100993.16;5017642;28;20076;-72
2023/06/11 06:52:39;;;;;;;1.60;0.88;;;;;;;17.41;70.16;100980.88;5017073;28;20053;-71
2023/06/11 06:55:08;;;;;;;1.20;0.90;;;;;;;17.36;70.89;100987.00;5023050;28;20053;-71
2023/06/11 06:57:37;;;;;;;1.70;0.98;;;;;;;17.32;70.20;100982.59;5021360;28;20096;-70
2023/06/11 07:00:07;;;;;;;3.17;1.33;;;;;;;17.30;71.20;100984.34;5026819;28;20048;-71
2023/06/11 07:02:36;;;;;;;1.35;1.00;;;;;;;17.29;70.51;100976.47;5020976;28;20739;-72
2023/06/11 07:05:05;;;;;;;2.13;1.13;;;;;;;17.27;71.15;100979.09;5026529;28;20497;-71
2023/06/11 07:07:38;;;;;;;1.42;0.70;;;;;;;17.22;70.95;100972.94;5023017;28;20100;-71
2023/06/11 07:10:08;;;;;;;1.77;1.00;;;;;;;17.22;71.25;100980.78;5018350;28;20083;-71
2023/06/11 07:12:36;;;;;;;4.25;0.98;;;;;;;17.18;71.16;100973.81;5026198;28;20088;-71
2023/06/11 07:15:06;;;;;;;2.17;0.82;;;;;;;17.15;70.83;100973.78;5022200;28;20041;-72
2023/06/11 07:17:34;;;;;;;1.15;0.80;;;;;;;17.09;71.55;100972.00;5017703;28;20071;-72
2023/06/11 07:20:04;;;;;;;2.70;1.10;;;;;;;17.04;71.15;100976.34;5024980;28;20107;-73
2023/06/11 07:22:32;;;;;;;1.52;0.98;;;;;;;17.04;71.01;100971.13;5001664;28;20057;-73
2023/06/11 07:25:06;;;;;;;2.42;0.93;;;;;;;17.02;71.68;100969.31;4997719;28;20054;-72
2023/06/11 07:27:35;;;;;;;1.55;1.00;;;;;;;16.99;71.74;100961.47;5000122;28;20062;-73
2023/06/11 07:30:03;;;;;;;2.85;1.27;;;;;;;16.94;72.21;100962.31;4995787;28;20603;-72
2023/06/11 07:32:32;;;;;;;4.30;0.90;;;;;;;16.92;71.62;100965.78;4999788;28;20057;-73
2023/06/11 07:35:01;;;;;;;1.58;0.93;;;;;;;16.89;72.33;100958.81;4998408;28;20108;-72
2023/06/11 07:37:29;;;;;;;3.63;0.82;;;;;;;16.84;71.62;100963.13;4996769;28;20057;-72
2023/06/11 07:39:58;;;;;;;1.63;0.80;;;;;;;16.83;72.63;100968.34;5001445;28;20061;-71
2023/06/11 07:42:28;;;;;;;4.50;0.90;;;;;;;16.77;71.92;100961.31;5002696;28;20057;-72
2023/06/11 07:44:56;;;;;;;1.15;0.90;;;;;;;16.72;72.70;100963.00;5004699;28;20127;-71
2023/06/11 07:47:25;;;;;;;1.63;0.80;;;;;;;16.65;73.23;100953.34;5000607;28;20096;-71
2023/06/11 07:49:54;;;;;;;0.80;0.70;;;;;;;16.58;74.26;100955.03;5001008;28;20084;-71
2023/06/11 07:52:22;;;;;;;1.60;0.93;;;;;;;16.51;74.50;100954.13;5003231;28;20114;-71
2023/06/11 07:54:51;;;;;;;2.25;0.82;;;;;;;16.49;73.82;100961.09;5010828;28;20046;-72
2023/06/11 07:57:22;;;;;;;3.58;1.05;;;;;;;16.34;74.20;100937.44;5000729;28;20046;-72
2023/06/11 07:59:54;;;;;;;4.30;1.02;;;;;;;16.36;74.40;100951.41;4999796;28;20052;-73
2023/06/11 08:02:23;;;;;;;2.25;0.70;;;;;;;16.28;75.56;100956.53;5000311;28;20058;-72
2023/06/11 08:04:51;;;;;;;3.88;1.15;;;;;;;16.23;75.72;100953.00;4998043;28;20061;-73
2023/06/11 08:07:23;;;;;;;1.38;1.08;;;;;;;16.21;76.78;100959.94;5006385;28;20053;-72
2023/06/11 08:09:51;;;;;;;1.02;0.77;;;;;;;16.17;76.44;100952.97;4998440;28;20295;-73
2023/06/11 08:12:20;;;;;;;1.90;0.90;;;;;;;16.17;76.24;100952.06;5004300;28;20042;-72
2023/06/11 08:14:48;;;;;;;1.85;1.13;;;;;;;16.16;75.96;100960.78;5002509;28;20096;-72
2023/06/11 08:17:18;;;;;;;1.27;0.80;;;;;;;16.10;76.10;100951.13;5001162;28;20043;-72
2023/06/11 08:19:47;;;;;;;3.42;0.98;;;;;;;16.06;76.69;100945.03;5000878;28;20058;-72
2023/06/11 08:22:16;;;;;;;2.92;1.00;;;;;;;16.02;76.85;100943.22;5000719;28;20120;-72
2023/06/11 08:24:44;;;;;;;2.00;1.10;;;;;;;15.98;77.77;100943.19;4993458;28;20046;-73
2023/06/11 08:27:13;;;;;;;1.17;0.80;;;;;;;15.84;78.56;100933.47;4986925;28;20073;-73
2023/06/11 08:29:41;;;;;;;1.92;0.93;;;;;;;15.84;78.46;100938.69;5002569;28;20065;-73
2023/06/11 08:32:12;;;;;;;1.80;0.90;;;;;;;15.89;77.90;100941.34;5000305;28;20108;-73
2023/06/11 08:34:42;;;;;;;1.75;0.90;;;;;;;15.89;78.42;100937.00;5001264;28;20049;-73
2023/06/11 08:37:11;;;;;;;1.63;0.98;;;;;;;15.88;78.97;100931.78;4998176;28;20042;-73
2023/06/11 08:39:45;;;;;;;2.47;1.40;;;;;;;15.83;79.57;100936.09;5002757;28;20096;-72
2023/06/11 08:42:14;;;;;;;2.08;0.98;;;;;;;15.80;79.16;100926.47;5000909;28;20550;-71
2023/06/11 08:44:43;;;;;;;3.08;1.05;;;;;;;15.80;79.17;100930.81;4996885;28;20042;-72
2023/06/11 08:47:12;;;;;;;1.20;0.90;;;;;;;15.78;78.71;100927.31;5001612;28;20620;-72
2023/06/11 08:49:46;;;;;;;2.25;1.00;;;;;;;15.74;78.99;100920.34;5004905;28;20318;-72
2023/06/11 08:52:16;;;;;;;2.58;0.93;;;;;;;15.70;78.96;100920.28;5007694;28;20133;-71
2023/06/11 08:54:45;;;;;;;1.10;0.70;;;;;;;15.69;78.76;100918.50;5003909;28;20054;-71
2023/06/11 08:57:13;;;;;;;0.77;0.57;;;;;;;15.70;79.50;100929.81;5002309;28;20046;-72
2023/06/11 08:59:42;;;;;;;1.85;1.00;;;;;;;15.61;78.59;100906.22;5004778;28;20506;-72
2023/06/11 09:02:12;;;;;;;3.28;1.05;;;;;;;15.68;79.05;100926.31;5003772;28;20054;-72
2023/06/11 09:04:45;;;;;;;1.73;1.13;;;;;;;15.67;78.29;100919.34;5004509;28;20049;-73
2023/06/11 09:07:24;;;;;;;1.58;0.95;;;;;;;15.61;78.61;100916.66;5003027;28;20048;-72
2023/06/11 09:10:04;;;;;;;1.75;1.20;;;;;;;15.59;78.71;100911.41;4998250;28;20555;-72
2023/06/11 09:12:32;;;;;;;2.47;1.10;;;;;;;15.58;79.10;100911.44;5001841;28;20141;-73
2023/06/11 09:15:01;;;;;;;4.45;0.88;;;;;;;15.54;79.33;100915.72;5004172;28;20041;-73
2023/06/11 09:17:38;;;;;;;1.38;0.98;;;;;;;15.53;79.39;100908.75;5005978;28;20082;-73
2023/06/11 09:20:10;;;;;;;1.15;1.00;;;;;;;15.49;80.74;100910.44;5007683;28;20064;-73
2023/06/11 09:22:42;;;;;;;1.85;1.20;;;;;;;15.47;80.52;100922.59;5019048;28;20502;-74
2023/06/11 09:25:16;;;;;;;0.95;0.68;;;;;;;15.46;80.48;100914.75;5026131;28;20072;-74
2023/06/11 09:27:46;;;;;;;3.63;1.00;;;;;;;15.46;80.74;100919.94;5022882;28;20049;-74
2023/06/11 09:30:17;;;;;;;1.20;1.00;;;;;;;15.44;79.77;100906.91;5017797;28;20048;-74
2023/06/11 09:32:47;;;;;;;1.25;0.93;;;;;;;15.44;80.27;100911.25;5021697;28;20053;-73
2023/06/11 09:35:17;;;;;;;1.63;0.77;;;;;;;15.43;80.89;100922.53;5025347;28;20053;-72
2023/06/11 09:37:47;;;;;;;0.82;0.60;;;;;;;15.34;81.52;100912.00;5018641;28;20046;-74
2023/06/11 09:40:18;;;;;;;3.00;1.02;;;;;;;15.38;81.07;100926.81;5021268;28;20617;-73
2023/06/11 09:42:48;;;;;;;2.42;1.00;;;;;;;15.36;80.69;100928.53;5025996;28;20061;-73
2023/06/11 09:45:17;;;;;;;2.53;0.93;;;;;;;15.35;80.18;100922.44;5019894;28;20100;-73
2023/06/11 09:47:51;;;;;;;1.48;0.80;;;;;;;15.33;80.82;100921.56;5022542;28;20081;-73
2023/06/11 09:50:21;;;;;;;3.13;0.88;;;;;;;15.32;80.66;100927.59;5018668;28;20096;-73
2023/06/11 09:52:51;;;;;;;1.25;0.95;;;;;;;15.29;81.11;100928.44;5020969;28;20041;-73
2023/06/11 09:55:21;;;;;;;1.52;0.75;;;;;;;15.24;80.85;100924.91;5023286;28;20060;-74
2023/06/11 09:57:50;;;;;;;3.00;0.90;;;;;;;15.20;81.00;100920.50;5025768;28;20117;-73
2023/06/11 10:00:20;;;;;;;2.03;0.98;;;;;;;15.16;81.69;100921.31;5024610;28;20072;-73
2023/06/11 10:02:48;;;;;;;2.60;1.08;;;;;;;15.11;81.51;100922.13;5021397;28;20054;-73
2023/06/11 10:05:17;;;;;;;1.02;0.88;;;;;;;15.07;82.29;100927.31;5023904;28;20053;-72
2023/06/11 10:07:52;;;;;;;1.63;0.90;;;;;;;15.03;82.16;100924.63;5021598;28;20053;-72
2023/06/11 10:10:23;;;;;;;1.67;0.82;;;;;;;15.01;83.42;100919.38;5016428;28;20120;-73
2023/06/11 10:12:52;;;;;;;3.23;1.20;;;;;;;14.98;82.37;100910.63;5019434;28;20067;-72
2023/06/11 10:15:24;;;;;;;3.58;1.10;;;;;;;14.95;82.85;100906.25;5018590;28;20045;-73
2023/06/11 10:17:54;;;;;;;2.65;0.68;;;;;;;14.93;83.27;100907.09;5019091;28;20141;-74
2023/06/11 10:20:27;;;;;;;1.08;0.80;;;;;;;14.93;83.58;100909.72;5022643;28;20061;-73
2023/06/11 10:23:09;;;;;;;2.08;1.10;;;;;;;14.92;83.52;100905.38;5021956;28;20049;-74
2023/06/11 10:25:39;;;;;;;3.70;1.17;;;;;;;14.89;82.68;100911.41;5025754;28;20049;-73
2023/06/11 10:28:08;;;;;;;4.10;1.30;;;;;;;14.86;84.06;100901.78;5022215;28;20111;-73
2023/06/11 10:30:37;;;;;;;1.33;1.00;;;;;;;14.84;83.86;100895.72;5021076;28;20049;-74
2023/06/11 10:33:06;;;;;;;2.38;1.02;;;;;;;14.83;84.99;100891.34;5020832;28;20049;-74
2023/06/11 10:35:36;;;;;;;2.25;1.20;;;;;;;14.83;85.54;100886.13;5019504;28;20046;-73
2023/06/11 10:38:08;;;;;;;2.08;1.08;;;;;;;14.79;86.18;100889.53;5024308;28;20164;-73
2023/06/11 10:40:38;;;;;;;2.60;1.02;;;;;;;14.74;87.66;100880.78;5018854;28;20084;-73
2023/06/11 10:43:17;;;;;;;1.20;0.80;;;;;;;14.71;88.10;100880.75;5022835;28;20125;-72
2023/06/11 10:45:45;;;;;;;0.75;0.70;;;;;;;14.64;87.89;100881.53;5019726;28;20138;-72
2023/06/11 10:48:14;;;;;;;2.08;0.68;;;;;;;14.55;87.84;100869.25;5024132;28;20045;-72
2023/06/11 10:50:43;;;;;;;2.53;0.70;;;;;;;14.59;87.16;100873.66;5019143;28;20046;-73
2023/06/11 10:53:15;;;;;;;2.13;0.90;;;;;;;14.64;86.51;100884.13;5025314;28;20041;-73
2023/06/11 10:55:49;;;;;;;1.83;0.82;;;;;;;14.61;86.36;100874.56;5020096;28;20534;-72
2023/06/11 10:58:24;;;;;;;2.75;1.00;;;;;;;14.56;86.56;100870.09;5016796;28;20061;-72
2023/06/11 11:00:56;;;;;;;1.52;0.90;;;;;;;14.55;87.26;100873.56;5018812;28;20038;-73
2023/06/11 11:03:25;;;;;;;0.95;0.70;;;;;;;14.52;87.28;100871.75;5022452;28;20053;-72
2023/06/11 11:05:55;;;;;;;1.02;0.90;;;;;;;14.50;87.42;100880.38;5021064;28;20052;-73
2023/06/11 11:08:26;;;;;;;1.17;1.00;;;;;;;14.49;87.76;100884.72;5022268;28;20133;-73
2023/06/11 11:10:56;;;;;;;4.05;1.35;;;;;;;14.46;88.17;100888.16;5019637;28;20049;-73
2023/06/11 11:13:25;;;;;;;1.08;0.70;;;;;;;14.43;88.90;100880.31;5016511;28;20053;-73
2023/06/11 11:15:54;;;;;;;4.38;1.00;;;;;;;14.39;88.82;100878.50;5017180;28;20045;-72
2023/06/11 11:18:23;;;;;;;1.60;1.00;;;;;;;14.37;88.69;100880.19;5022227;28;20061;-74
2023/06/11 11:20:55;;;;;;;1.67;1.02;;;;;;;14.37;88.26;100893.22;5023206;28;20045;-74
2023/06/11 11:23:25;;;;;;;2.97;0.98;;;;;;;14.33;87.55;100886.19;5019298;28;20328;-74
2023/06/11 11:25:54;;;;;;;1.60;1.10;;;;;;;14.31;88.71;100890.50;5020095;28;20053;-73
2023/06/11 11:28:33;;;;;;;1.50;0.85;;;;;;;14.30;88.39;100893.97;5020589;28;20057;-73
2023/06/11 11:31:03;;;;;;;2.67;1.25;;;;;;;14.30;88.03;100885.28;5023092;28;20045;-74
2023/06/11 11:33:34;;;;;;;2.65;1.10;;;;;;;14.28;88.66;100887.00;5019583;28;20103;-74
2023/06/11 11:36:05;;;;;;;1.88;0.80;;;;;;;14.27;88.75;100887.81;5022710;28;20049;-73
2023/06/11 11:38:39;;;;;;;1.52;1.00;;;;;;;14.27;89.54;100893.03;5019913;28;20041;-72
2023/06/11 11:41:10;;;;;;;1.80;0.90;;;;;;;14.25;89.75;100887.81;5017711;28;20073;-74